Time;durP1;ratioP1;P1;durP2;ratioP2;P2;SDS_P1;SDS_P2;PMS_P1;PMS_P2;Temp;Humidity;BMP_temperature;BMP_pressure;BME280_temperature;BME280_humidity;BME280_pressure;Samples;Min_cycle;Max_cycle;Signal;HPM_P1;HPM_P2
2021/10/19 00:01:19;;;;;;;88.57;41.70;;;6.20;99.90;;;4.80;100.00;98795.94;5064117;28;20465;-66
2021/10/19 00:03:46;;;;;;;84.70;40.77;;;6.20;99.90;;;4.90;100.00;98803.00;5068930;28;20456;-66
2021/10/19 00:06:14;;;;;;;87.00;42.83;;;6.20;99.90;;;4.81;100.00;98808.31;5054046;28;21113;-66
2021/10/19 00:08:41;;;;;;;85.17;42.07;;;6.20;99.90;;;4.74;100.00;98801.91;5065409;28;20489;-66
2021/10/19 00:11:10;;;;;;;83.43;42.70;;;6.10;99.90;;;4.74;100.00;98791.19;5065788;28;20618;-66
2021/10/19 00:13:38;;;;;;;84.03;41.63;;;6.10;99.90;;;4.80;100.00;98785.22;5066396;28;20578;-66
2021/10/19 00:16:05;;;;;;;83.53;41.33;;;6.10;99.90;;;4.83;100.00;98792.06;5055756;28;20573;-66
2021/10/19 00:18:33;;;;;;;91.40;42.87;;;6.20;99.90;;;4.82;100.00;98787.72;5064522;28;20463;-67
2021/10/19 00:20:59;;;;;;;82.07;40.60;;;6.20;99.90;;;4.78;100.00;98787.22;5074625;28;20535;-67
2021/10/19 00:23:26;;;;;;;78.33;40.43;;;6.10;99.90;;;4.74;100.00;98772.47;5064160;28;20461;-67
2021/10/19 00:25:54;;;;;;;80.50;41.70;;;6.10;99.90;;;4.65;100.00;98784.13;5070650;28;20551;-67
2021/10/19 00:28:22;;;;;;;85.23;42.90;;;6.10;99.90;;;4.61;100.00;98770.22;5065178;28;20472;-66
2021/10/19 00:30:49;;;;;;;88.73;44.17;;;6.00;99.90;;;4.61;100.00;98780.94;5064911;28;20519;-67
2021/10/19 00:33:16;;;;;;;97.00;43.30;;;6.00;99.90;;;4.58;100.00;98780.41;5065745;28;20464;-67
2021/10/19 00:35:43;;;;;;;86.73;41.73;;;6.00;99.90;;;4.57;100.00;98778.72;5062474;28;21000;-67
2021/10/19 00:38:10;;;;;;;84.07;40.87;;;6.00;99.90;;;4.57;100.00;98773.38;5063970;28;20554;-66
2021/10/19 00:40:37;;;;;;;77.17;41.57;;;6.00;99.90;;;4.50;100.00;98775.84;5068789;28;20464;-66
2021/10/19 00:43:05;;;;;;;95.33;45.03;;;5.90;99.90;;;4.52;100.00;98777.38;5067201;28;20575;-66
2021/10/19 00:45:34;;;;;;;89.50;41.63;;;5.90;99.90;;;4.52;100.00;98774.69;5081393;28;21494;-64
2021/10/19 00:48:01;;;;;;;91.50;41.77;;;5.90;99.90;;;4.51;100.00;98775.69;5068881;28;20492;-66
2021/10/19 00:50:29;;;;;;;85.43;42.20;;;5.90;99.90;;;4.53;100.00;98780.88;5062694;28;20456;-65
2021/10/19 00:52:58;;;;;;;89.57;40.77;;;5.90;99.90;;;4.53;100.00;98778.19;5063882;28;20536;-65
2021/10/19 00:55:25;;;;;;;79.80;40.30;;;5.90;99.90;;;4.51;100.00;98769.50;5063723;28;20480;-65
2021/10/19 00:57:53;;;;;;;70.77;38.53;;;5.90;99.90;;;4.47;100.00;98768.94;5062438;28;20539;-65
2021/10/19 01:00:23;;;;;;;72.27;39.57;;;5.90;99.90;;;4.41;100.00;98768.78;5060941;28;20455;-67
2021/10/19 01:02:51;;;;;;;70.07;37.63;;;5.80;99.90;;;4.42;100.00;98765.91;5067940;28;20457;-66
2021/10/19 01:05:19;;;;;;;66.70;37.37;;;5.80;99.90;;;4.35;100.00;98754.19;5064749;28;21104;-65
2021/10/19 01:07:47;;;;;;;61.83;36.30;;;5.80;99.90;;;4.25;100.00;98748.94;5064677;28;20609;-65
2021/10/19 01:10:14;;;;;;;68.37;36.27;;;5.70;99.90;;;4.22;100.00;98744.72;5065765;28;20464;-65
2021/10/19 01:12:42;;;;;;;65.00;35.60;;;5.70;99.90;;;4.27;100.00;98756.78;5056624;28;20776;-65
2021/10/19 01:15:11;;;;;;;66.33;35.20;;;5.70;99.90;;;4.22;100.00;98751.91;5064691;28;20972;-65
2021/10/19 01:17:43;;;;;;;67.27;35.70;;;5.70;99.90;;;4.22;100.00;98750.09;5064536;28;20969;-65
2021/10/19 01:20:20;;;;;;;57.73;34.50;;;5.70;99.90;;;4.20;100.00;98746.72;5082399;28;20919;-65
2021/10/19 01:22:47;;;;;;;63.73;34.93;;;5.60;99.90;;;4.16;100.00;98752.53;5063980;28;20581;-65
2021/10/19 01:25:18;;;;;;;58.70;33.60;;;5.60;99.90;;;4.21;100.00;98753.75;5059714;28;20534;-66
2021/10/19 01:27:48;;;;;;;61.03;33.23;;;5.60;99.90;;;4.20;100.00;98751.22;5059681;28;20843;-66
2021/10/19 01:30:15;;;;;;;54.07;30.97;;;5.60;99.90;;;4.15;100.00;98754.34;5065808;28;20896;-67
2021/10/19 01:32:42;;;;;;;60.53;32.60;;;5.60;99.90;;;4.19;100.00;98760.25;5064855;28;20833;-66
2021/10/19 01:35:11;;;;;;;58.10;33.07;;;5.60;99.90;;;4.27;100.00;98765.66;5061390;28;20875;-67
2021/10/19 01:37:40;;;;;;;65.63;34.43;;;5.60;99.90;;;4.24;100.00;98769.50;5060481;28;20496;-67
2021/10/19 01:40:10;;;;;;;61.80;33.50;;;5.60;99.90;;;4.27;100.00;98767.50;5065760;28;20568;-66
2021/10/19 01:42:38;;;;;;;53.37;31.47;;;5.70;99.90;;;4.24;100.00;98768.63;5065914;28;20479;-67
2021/10/19 01:45:12;;;;;;;62.70;33.10;;;5.70;99.90;;;4.31;100.00;98756.31;5060260;28;20584;-67
2021/10/19 01:47:39;;;;;;;68.97;35.37;;;5.70;99.90;;;4.31;100.00;98758.16;5064265;28;20447;-65
2021/10/19 01:50:07;;;;;;;66.97;36.00;;;5.70;99.90;;;4.38;100.00;98760.03;5063046;28;20982;-65
2021/10/19 01:52:35;;;;;;;73.97;36.77;;;5.70;99.90;;;4.30;100.00;98759.16;5067358;28;20570;-67
2021/10/19 01:55:04;;;;;;;66.73;34.83;;;5.70;99.90;;;4.33;100.00;98775.72;5066573;28;21250;-65
2021/10/19 01:57:34;;;;;;;68.70;34.20;;;5.70;99.90;;;4.45;100.00;98770.94;5068261;28;20488;-66
2021/10/19 02:00:01;;;;;;;68.60;33.80;;;5.80;99.90;;;4.37;100.00;98760.22;5065907;28;20542;-66
2021/10/19 02:02:28;;;;;;;79.80;38.23;;;5.80;99.90;;;4.63;100.00;98775.44;5069020;28;20529;-65
2021/10/19 02:04:56;;;;;;;71.63;36.80;;;6.00;99.90;;;4.62;100.00;98774.56;5065922;28;20496;-66
2021/10/19 02:07:23;;;;;;;71.93;35.40;;;6.00;99.90;;;4.65;100.00;98770.75;5070254;28;20495;-65
2021/10/19 02:09:50;;;;;;;73.17;36.90;;;6.00;99.90;;;4.47;100.00;98758.25;5068951;28;20464;-65
2021/10/19 02:12:18;;;;;;;86.60;37.80;;;5.90;99.90;;;4.54;100.00;98764.66;5062275;28;20957;-64
2021/10/19 02:14:45;;;;;;;75.47;37.60;;;6.00;99.90;;;4.49;100.00;98750.06;5062331;28;20559;-66
2021/10/19 02:17:12;;;;;;;75.37;36.30;;;6.00;99.90;;;4.63;100.00;98741.47;5067875;28;20449;-66
2021/10/19 02:19:39;;;;;;;79.23;37.00;;;6.00;99.90;;;4.61;100.00;98737.25;5063720;28;20555;-64
2021/10/19 02:22:06;;;;;;;84.23;38.43;;;6.00;99.90;;;4.68;100.00;98738.31;5066502;28;20455;-67
2021/10/19 02:24:33;;;;;;;82.93;37.97;;;6.00;99.90;;;4.66;100.00;98737.63;5077961;28;20856;-66
2021/10/19 02:27:00;;;;;;;89.07;38.50;;;6.10;99.90;;;4.66;100.00;98737.63;5073564;28;20548;-66
2021/10/19 02:29:29;;;;;;;83.57;37.50;;;6.10;99.90;;;4.64;100.00;98720.91;5064271;28;21004;-66
2021/10/19 02:31:56;;;;;;;84.37;36.70;;;6.10;99.90;;;4.65;100.00;98727.94;5067954;28;20545;-66
2021/10/19 02:34:23;;;;;;;101.10;39.87;;;6.10;99.90;;;4.66;100.00;98729.59;5064889;28;20475;-66
2021/10/19 02:36:51;;;;;;;82.87;37.30;;;6.10;99.90;;;4.57;100.00;98742.09;5089258;28;20464;-67
2021/10/19 02:39:18;;;;;;;93.03;38.80;;;6.00;99.90;;;4.66;100.00;98737.63;5068761;28;20470;-67
2021/10/19 02:41:45;;;;;;;83.17;38.70;;;6.00;99.90;;;4.73;100.00;98735.97;5066195;28;20534;-67
2021/10/19 02:44:12;;;;;;;124.40;41.20;;;6.10;99.90;;;4.75;100.00;98733.97;5065918;28;21053;-66
2021/10/19 02:46:41;;;;;;;91.67;35.90;;;6.10;99.90;;;4.71;100.00;98729.94;5062066;28;20561;-66
2021/10/19 02:49:08;;;;;;;87.20;39.47;;;6.10;99.90;;;4.76;100.00;98734.84;5061471;28;20488;-66
2021/10/19 02:51:34;;;;;;;87.67;38.23;;;6.10;99.90;;;4.79;100.00;98735.34;5068345;28;20510;-66
2021/10/19 02:54:02;;;;;;;94.63;36.93;;;6.10;99.90;;;4.83;100.00;98735.84;5066666;28;20456;-66
2021/10/19 02:56:29;;;;;;;115.63;37.50;;;6.20;99.90;;;4.73;100.00;98733.31;5062891;28;20460;-66
2021/10/19 02:58:55;;;;;;;91.80;37.70;;;6.20;99.90;;;4.93;100.00;98749.13;5070715;28;20469;-66
2021/10/19 03:01:22;;;;;;;87.97;36.30;;;6.30;99.90;;;5.00;100.00;98757.34;5065704;28;20946;-66
2021/10/19 03:03:51;;;;;;;84.17;36.53;;;6.30;99.90;;;4.81;100.00;98741.38;5065007;28;20861;-64
2021/10/19 03:06:18;;;;;;;88.53;36.70;;;6.20;99.90;;;4.74;100.00;98750.22;5069705;28;20456;-64
2021/10/19 03:08:45;;;;;;;83.40;36.23;;;6.20;99.90;;;4.89;100.00;98753.97;5062614;28;20449;-65
2021/10/19 03:11:12;;;;;;;89.93;37.50;;;6.20;99.90;;;4.96;100.00;98740.78;5070581;28;20495;-65
2021/10/19 03:13:39;;;;;;;86.73;36.20;;;6.30;99.90;;;4.99;100.00;98736.91;5058662;28;20499;-65
2021/10/19 03:16:06;;;;;;;74.87;36.17;;;6.30;99.90;;;5.00;100.00;98736.75;5065669;28;20562;-66
2021/10/19 03:18:33;;;;;;;76.87;36.83;;;6.40;99.90;;;4.97;100.00;98743.28;5067473;28;20941;-66
2021/10/19 03:21:05;;;;;;;78.87;36.00;;;6.40;99.90;;;5.04;100.00;98748.81;5065316;28;20929;-65
2021/10/19 03:23:32;;;;;;;89.70;37.60;;;6.40;99.90;;;4.92;100.00;98745.59;5066900;28;20494;-65
2021/10/19 03:25:59;;;;;;;76.47;34.17;;;6.40;99.90;;;5.01;100.00;98759.88;5067783;28;20506;-66
2021/10/19 03:28:26;;;;;;;69.20;35.17;;;6.40;99.90;;;4.94;100.00;98753.50;5066186;28;21004;-65
2021/10/19 03:30:53;;;;;;;76.80;34.50;;;6.40;99.90;;;5.00;100.00;98754.66;5069438;28;20822;-66
2021/10/19 03:33:20;;;;;;;77.67;36.00;;;6.40;99.90;;;4.87;100.00;98747.09;5065468;28;20468;-65
2021/10/19 03:35:47;;;;;;;76.23;37.30;;;6.30;99.90;;;4.98;100.00;98741.44;5065452;28;20471;-65
2021/10/19 03:38:15;;;;;;;69.40;34.67;;;6.40;99.90;;;4.98;100.00;98754.84;5082195;28;20487;-65
2021/10/19 03:40:42;;;;;;;65.40;34.77;;;6.40;99.90;;;5.00;100.00;98763.56;5067105;28;20448;-65
2021/10/19 03:43:09;;;;;;;69.93;35.47;;;6.40;99.90;;;5.07;100.00;98764.56;5069091;28;20451;-65
2021/10/19 03:45:36;;;;;;;58.47;33.10;;;6.40;99.90;;;5.24;100.00;98759.28;5068998;28;20527;-65
2021/10/19 03:48:03;;;;;;;62.47;33.30;;;6.50;99.90;;;5.17;100.00;98761.78;5071578;28;21032;-65
2021/10/19 03:50:30;;;;;;;59.27;32.13;;;6.50;99.90;;;5.25;100.00;98763.66;5065267;28;20495;-66
2021/10/19 03:52:58;;;;;;;57.67;33.47;;;6.50;99.90;;;5.22;100.00;98767.47;5072992;28;20521;-65
2021/10/19 03:55:27;;;;;;;59.27;34.20;;;6.60;99.90;;;5.25;100.00;98755.59;5068262;28;20496;-65
2021/10/19 03:57:54;;;;;;;61.30;33.13;;;6.60;99.90;;;5.27;100.00;98753.59;5071489;28;20539;-67
2021/10/19 04:00:21;;;;;;;60.60;32.83;;;6.60;99.90;;;5.08;100.00;98742.16;5063683;28;20525;-67
2021/10/19 04:02:48;;;;;;;57.00;31.23;;;6.50;99.90;;;5.23;100.00;98754.91;5067584;28;20953;-65
2021/10/19 04:05:15;;;;;;;56.73;34.43;;;6.50;99.90;;;5.07;100.00;98753.84;5064222;28;20920;-65
2021/10/19 04:07:43;;;;;;;59.23;32.10;;;6.50;99.90;;;5.25;100.00;98760.97;5084084;28;20447;-65
2021/10/19 04:10:10;;;;;;;54.97;32.60;;;6.60;99.90;;;5.33;100.00;98752.13;5070496;28;20460;-65
2021/10/19 04:12:38;;;;;;;57.50;32.37;;;6.60;99.90;;;5.39;100.00;98741.59;5061870;28;20461;-66
2021/10/19 04:15:07;;;;;;;56.27;32.80;;;6.70;99.90;;;5.46;100.00;98752.47;5060602;28;20567;-65
2021/10/19 04:17:34;;;;;;;55.27;32.30;;;6.70;99.90;;;5.48;100.00;98744.25;5068091;28;20445;-65
2021/10/19 04:20:01;;;;;;;54.93;31.10;;;6.80;99.90;;;5.45;100.00;98728.50;5066721;28;20551;-65
2021/10/19 04:22:28;;;;;;;56.43;30.60;;;6.80;99.90;;;5.48;100.00;98730.84;5066235;28;21025;-65
2021/10/19 04:24:55;;;;;;;58.37;30.87;;;6.80;99.90;;;5.37;100.00;98732.00;5065264;28;20507;-64
2021/10/19 04:27:23;;;;;;;54.20;33.57;;;6.80;99.90;;;5.29;100.00;98724.81;5060423;28;20477;-65
2021/10/19 04:29:51;;;;;;;64.30;30.47;;;6.70;99.90;;;5.43;100.00;98719.81;5067205;28;20457;-65
2021/10/19 04:32:18;;;;;;;57.00;31.10;;;6.70;99.90;;;5.51;100.00;98723.34;5064009;28;20976;-66
2021/10/19 04:34:46;;;;;;;58.07;32.80;;;6.80;99.90;;;5.48;100.00;98733.53;5065870;28;20563;-65
2021/10/19 04:37:13;;;;;;;51.30;29.77;;;6.80;99.90;;;5.54;100.00;98716.81;5069169;28;20985;-65
2021/10/19 04:39:40;;;;;;;58.93;31.90;;;6.90;99.90;;;5.52;100.00;98721.47;5070153;28;20522;-65
2021/10/19 04:42:07;;;;;;;50.23;29.97;;;6.80;99.90;;;5.57;100.00;98720.97;5065225;28;20491;-65
2021/10/19 04:44:34;;;;;;;53.83;29.03;;;6.90;99.90;;;5.59;100.00;98724.34;5063322;28;20817;-65
2021/10/19 04:47:03;;;;;;;46.37;29.23;;;6.90;99.90;;;5.63;100.00;98715.78;5070736;28;20550;-65
2021/10/19 04:49:32;;;;;;;50.97;28.27;;;6.90;99.90;;;5.51;100.00;98725.16;5063999;28;20480;-66
2021/10/19 04:51:59;;;;;;;49.60;29.27;;;6.90;99.90;;;5.64;100.00;98714.78;5079137;28;20506;-66
2021/10/19 04:54:26;;;;;;;47.10;28.60;;;6.90;99.90;;;5.62;100.00;98719.47;5055744;28;20522;-66
2021/10/19 04:56:53;;;;;;;45.67;28.13;;;7.00;99.90;;;5.65;100.00;98707.59;5067388;28;20528;-66
2021/10/19 04:59:20;;;;;;;52.80;30.00;;;6.90;99.90;;;5.84;100.00;98717.16;5071967;28;20483;-66
2021/10/19 05:01:47;;;;;;;49.60;29.07;;;7.00;99.90;;;5.95;100.00;98722.16;5060702;28;20498;-66
2021/10/19 05:04:16;;;;;;;42.03;26.17;;;7.20;99.90;;;5.88;100.00;98714.97;5078847;28;20543;-66
2021/10/19 05:06:43;;;;;;;57.70;31.37;;;7.20;99.90;;;5.80;100.00;98721.16;5064798;28;20819;-66
2021/10/19 05:09:10;;;;;;;47.03;29.27;;;7.10;99.90;;;5.81;100.00;98698.69;5063712;28;20453;-66
2021/10/19 05:11:37;;;;;;;42.47;27.60;;;7.10;99.90;;;5.58;100.00;98694.03;5067024;28;20551;-66
2021/10/19 05:14:04;;;;;;;42.80;27.67;;;6.90;99.90;;;5.60;100.00;98705.41;5067195;28;20528;-67
2021/10/19 05:16:31;;;;;;;44.97;26.77;;;7.00;99.90;;;5.73;100.00;98710.25;5063626;28;20563;-66
2021/10/19 05:18:58;;;;;;;44.03;28.67;;;7.00;99.90;;;5.64;100.00;98712.09;5065419;28;20543;-66
2021/10/19 05:21:27;;;;;;;44.00;27.20;;;7.00;99.90;;;5.52;100.00;98705.38;5064669;28;20491;-70
2021/10/19 05:23:54;;;;;;;48.20;28.33;;;6.90;99.90;;;5.90;100.00;98705.75;5065012;28;20969;-70
2021/10/19 05:26:21;;;;;;;46.40;27.37;;;7.20;99.90;;;5.84;100.00;98716.31;5062820;28;20446;-70
2021/10/19 05:28:48;;;;;;;42.00;26.90;;;7.20;99.90;;;5.95;100.00;98710.63;5067099;28;20471;-72
2021/10/19 05:31:15;;;;;;;42.87;25.83;;;7.20;99.90;;;6.03;100.00;98702.56;5065014;28;20819;-71
2021/10/19 05:33:42;;;;;;;38.23;26.70;;;7.30;99.90;;;6.07;100.00;98703.09;5072352;28;20492;-72
2021/10/19 05:36:09;;;;;;;37.47;24.57;;;7.40;99.90;;;6.07;100.00;98711.13;5066378;28;20563;-69
2021/10/19 05:38:38;;;;;;;37.83;24.93;;;7.40;99.90;;;5.80;100.00;98713.97;5073899;28;20851;-70
2021/10/19 05:41:05;;;;;;;39.47;25.30;;;7.30;99.50;;;5.85;100.00;98707.25;5067742;28;20467;-69
2021/10/19 05:43:33;;;;;;;39.90;25.80;;;7.20;99.90;;;6.18;100.00;98713.47;5062835;28;20493;-68
2021/10/19 05:46:00;;;;;;;46.30;28.23;;;7.30;99.90;;;6.00;100.00;98708.25;5066791;28;20557;-71
2021/10/19 05:48:27;;;;;;;35.83;24.23;;;7.40;99.70;;;6.12;100.00;98714.13;5066538;28;20459;-69
2021/10/19 05:50:55;;;;;;;37.50;25.50;;;7.50;99.90;;;6.16;100.00;98710.13;5069109;28;20452;-68
2021/10/19 05:53:22;;;;;;;35.70;24.10;;;7.50;98.80;;;6.22;100.00;98713.97;5065185;28;20485;-68
2021/10/19 05:55:54;;;;;;;35.50;25.10;;;7.50;99.20;;;6.33;100.00;98718.97;5066120;28;20506;-68
2021/10/19 05:58:21;;;;;;;34.90;23.97;;;7.60;99.90;;;6.04;100.00;98695.38;5071620;28;20492;-68
2021/10/19 06:00:48;;;;;;;37.40;23.70;;;7.50;98.60;;;6.35;100.00;98724.19;5067049;28;21124;-68
2021/10/19 06:03:15;;;;;;;32.63;24.80;;;7.60;99.90;;;6.45;99.46;98719.47;5069243;28;20448;-69
2021/10/19 06:05:42;;;;;;;31.40;22.20;;;7.80;96.90;;;6.69;98.45;98719.56;5069139;28;20529;-69
2021/10/19 06:08:09;;;;;;;32.90;22.13;;;7.90;96.00;;;6.59;98.09;98720.59;5066379;28;20821;-69
2021/10/19 06:10:36;;;;;;;29.57;21.57;;;8.00;95.10;;;6.52;98.77;98730.31;5064060;28;20457;-69
2021/10/19 06:13:05;;;;;;;30.03;21.90;;;7.80;95.40;;;6.41;99.64;98734.22;5067530;28;20449;-69
2021/10/19 06:15:32;;;;;;;33.83;22.10;;;7.70;96.20;;;6.49;99.69;98726.16;5071633;28;20520;-74
2021/10/19 06:17:59;;;;;;;30.67;21.63;;;7.70;96.60;;;6.32;99.41;98709.25;5070034;28;20491;-69
2021/10/19 06:20:26;;;;;;;30.23;21.73;;;7.70;95.80;;;6.39;99.71;98709.41;5051958;28;20464;-69
2021/10/19 06:22:53;;;;;;;26.60;20.87;;;7.70;97.10;;;6.55;97.83;98723.78;5068841;28;20589;-69
2021/10/19 06:25:21;;;;;;;29.07;20.47;;;7.90;94.80;;;6.47;98.25;98728.19;5064901;28;20491;-69
2021/10/19 06:27:48;;;;;;;26.23;20.00;;;7.80;94.40;;;6.84;97.68;98731.25;5065079;28;20448;-69
2021/10/19 06:30:16;;;;;;;30.23;21.27;;;8.00;95.10;;;6.71;97.28;98725.59;5067195;28;20968;-68
2021/10/19 06:32:43;;;;;;;25.60;19.17;;;8.00;94.30;;;6.74;97.13;98734.13;5064298;28;20548;-69
2021/10/19 06:35:11;;;;;;;24.60;20.00;;;8.10;93.90;;;6.88;96.95;98737.94;5064104;28;20473;-68
2021/10/19 06:37:39;;;;;;;26.70;20.17;;;8.10;94.20;;;6.83;96.63;98734.09;5067175;28;20971;-69
2021/10/19 06:40:08;;;;;;;30.93;21.80;;;8.10;93.30;;;6.59;97.71;98712.53;5078981;28;20465;-69
2021/10/19 06:42:36;;;;;;;23.33;19.17;;;8.00;93.70;;;6.73;97.89;98728.94;5063036;28;20449;-69
2021/10/19 06:45:05;;;;;;;27.63;18.63;;;8.00;94.70;;;6.74;97.12;98747.56;5066933;28;20567;-68
2021/10/19 06:47:37;;;;;;;26.97;19.70;;;8.10;94.10;;;6.82;96.46;98735.13;5056702;28;20456;-67
2021/10/19 06:50:05;;;;;;;25.90;19.57;;;8.10;94.20;;;6.98;96.34;98755.72;5082060;28;20484;-67
2021/10/19 06:52:33;;;;;;;29.97;22.73;;;8.20;93.50;;;7.07;95.79;98760.88;5057322;28;20549;-69
2021/10/19 06:55:00;;;;;;;27.43;20.37;;;8.30;93.30;;;7.15;95.88;98761.84;5062316;28;20468;-69
2021/10/19 06:57:30;;;;;;;26.30;19.30;;;8.40;93.00;;;7.40;94.89;98764.44;5081399;28;20468;-69
2021/10/19 06:59:59;;;;;;;22.00;18.97;;;8.60;92.70;;;7.35;95.04;98768.50;5066134;28;20543;-68
2021/10/19 07:02:26;;;;;;;23.50;19.10;;;8.60;92.80;;;7.47;94.30;98766.22;5058510;28;20460;-67
2021/10/19 07:04:55;;;;;;;24.03;19.40;;;8.60;92.10;;;7.57;92.84;98766.00;5063551;28;20541;-65
2021/10/19 07:07:22;;;;;;;23.20;18.73;;;8.80;91.20;;;7.52;94.47;98773.78;5063954;28;20467;-65
2021/10/19 07:09:49;;;;;;;24.30;17.47;;;8.80;91.90;;;7.44;94.52;98766.59;5066033;28;20463;-64
2021/10/19 07:12:16;;;;;;;24.20;19.30;;;8.70;91.80;;;7.73;93.64;98778.47;5063597;28;20481;-62
2021/10/19 07:14:43;;;;;;;21.83;17.50;;;8.80;92.10;;;7.51;94.22;98783.69;5065636;28;20465;-64
2021/10/19 07:17:10;;;;;;;21.90;18.47;;;8.80;91.40;;;7.71;94.00;98782.38;5065018;28;20491;-66
2021/10/19 07:19:38;;;;;;;23.00;18.70;;;8.90;91.90;;;7.48;93.64;98761.66;5070015;28;20459;-66
2021/10/19 07:22:07;;;;;;;20.10;17.80;;;9.00;91.20;;;7.67;93.76;98773.00;5068406;28;20467;-65
2021/10/19 07:24:34;;;;;;;26.17;19.07;;;9.00;91.10;;;7.73;92.97;98764.22;5066751;28;20472;-71
2021/10/19 07:27:02;;;;;;;23.50;17.40;;;8.90;91.30;;;7.79;92.50;98761.66;5063207;28;20448;-66
2021/10/19 07:29:29;;;;;;;23.03;19.60;;;9.10;91.00;;;8.22;92.29;98782.66;5069974;28;20456;-66
2021/10/19 07:31:56;;;;;;;24.20;18.77;;;9.20;91.40;;;7.94;92.17;98785.91;5060194;28;20556;-66
2021/10/19 07:34:23;;;;;;;22.10;18.57;;;9.20;90.60;;;7.77;93.48;98787.91;5066015;28;20573;-66
2021/10/19 07:36:51;;;;;;;25.20;19.63;;;9.10;91.10;;;7.76;93.34;98788.91;5063062;28;20919;-67
2021/10/19 07:39:19;;;;;;;24.00;18.10;;;9.10;91.30;;;7.93;93.14;98792.31;5078339;28;20465;-65
2021/10/19 07:41:47;;;;;;;21.67;18.13;;;9.10;91.30;;;7.96;92.51;98782.19;5063704;28;20500;-66
2021/10/19 07:44:14;;;;;;;24.10;19.00;;;9.20;91.20;;;8.07;93.00;98777.25;5062510;28;20480;-67
2021/10/19 07:46:41;;;;;;;19.53;17.27;;;9.30;91.30;;;8.07;92.70;98776.41;5061861;28;20452;-67
2021/10/19 07:49:09;;;;;;;22.87;18.07;;;9.30;91.10;;;8.31;92.09;98790.69;5069081;28;20467;-66
2021/10/19 07:51:36;;;;;;;24.60;18.03;;;9.40;90.90;;;8.42;91.32;98784.88;5054962;28;20465;-67
2021/10/19 07:54:03;;;;;;;22.87;17.77;;;9.60;90.20;;;8.52;91.78;98776.56;5058218;28;20476;-65
2021/10/19 07:56:32;;;;;;;24.07;19.67;;;9.60;90.80;;;8.56;90.48;98790.47;5053435;28;20469;-67
2021/10/19 07:59:00;;;;;;;21.77;17.33;;;9.70;90.10;;;8.63;90.35;98786.03;5069672;28;20582;-66
2021/10/19 08:01:27;;;;;;;23.07;18.67;;;9.80;90.00;;;8.89;89.90;98782.06;5065333;28;20560;-67
2021/10/19 08:03:54;;;;;;;19.50;16.53;;;10.00;87.30;;;9.14;89.23;98777.22;5063513;28;20557;-67
2021/10/19 08:06:21;;;;;;;21.30;17.93;;;10.20;87.30;;;8.94;88.29;98782.34;5064023;28;20461;-67
2021/10/19 08:08:48;;;;;;;19.67;17.50;;;10.20;85.40;;;9.06;88.50;98763.81;5081916;28;20472;-67
2021/10/19 08:11:15;;;;;;;21.77;16.20;;;10.30;85.20;;;9.11;88.87;98766.81;5061922;28;20456;-67
2021/10/19 08:13:44;;;;;;;20.13;17.07;;;10.20;86.10;;;9.04;88.50;98771.25;5066826;28;20526;-68
2021/10/19 08:16:11;;;;;;;22.70;19.03;;;10.20;85.80;;;9.19;87.96;98773.97;5061169;28;20480;-68
2021/10/19 08:18:38;;;;;;;16.97;15.17;;;10.30;85.20;;;9.07;87.77;98776.28;5063340;28;20457;-66
2021/10/19 08:21:06;;;;;;;19.83;17.87;;;10.30;85.00;;;9.27;88.70;98771.16;5055960;28;20460;-68
2021/10/19 08:23:34;;;;;;;23.07;17.60;;;10.40;86.20;;;9.47;87.37;98779.47;5061017;28;20460;-68
2021/10/19 08:26:01;;;;;;;20.10;16.90;;;10.60;85.00;;;9.27;87.42;98771.16;5058615;28;20502;-67
2021/10/19 08:28:30;;;;;;;18.50;16.50;;;10.50;84.70;;;9.35;87.68;98773.75;5060377;28;20852;-66
2021/10/19 08:30:59;;;;;;;22.00;17.10;;;10.50;84.90;;;9.21;88.63;98771.91;5065877;28;20460;-66
2021/10/19 08:33:26;;;;;;;19.17;16.47;;;10.50;85.20;;;9.00;89.20;98778.06;5061432;28;21073;-68
2021/10/19 08:35:56;;;;;;;21.87;17.00;;;10.30;85.40;;;9.37;87.78;98775.41;5059028;28;20919;-67
2021/10/19 08:38:23;;;;;;;21.70;17.60;;;10.40;85.80;;;8.94;89.00;98760.78;5060738;28;20455;-66
2021/10/19 08:40:51;;;;;;;23.10;18.67;;;10.30;85.50;;;9.30;88.85;98776.16;5057585;28;20540;-66
2021/10/19 08:43:20;;;;;;;22.80;18.53;;;10.50;86.10;;;9.07;89.88;98769.03;5061874;28;20469;-67
2021/10/19 08:45:49;;;;;;;21.40;17.50;;;10.40;86.30;;;9.43;88.30;98780.91;5063685;28;20502;-66
2021/10/19 08:48:23;;;;;;;20.63;17.50;;;10.50;86.20;;;9.10;89.41;98773.22;5063210;28;20464;-66
2021/10/19 08:50:50;;;;;;;20.60;17.13;;;10.50;85.50;;;9.23;89.02;98775.25;5063187;28;20576;-67
2021/10/19 08:53:18;;;;;;;19.50;17.03;;;10.50;86.30;;;9.60;88.52;98769.88;5061507;28;20457;-67
2021/10/19 08:55:45;;;;;;;22.33;18.40;;;10.60;86.50;;;9.56;87.65;98769.41;5065475;28;20503;-66
2021/10/19 08:58:12;;;;;;;20.77;17.53;;;10.80;85.50;;;9.83;87.48;98764.31;5059931;28;20506;-66
2021/10/19 09:00:40;;;;;;;21.60;17.87;;;11.00;85.30;;;9.60;87.82;98775.28;5079312;28;20920;-67
2021/10/19 09:03:07;;;;;;;18.77;16.77;;;10.90;85.20;;;9.67;87.73;98775.34;5060004;28;20485;-66
2021/10/19 09:05:36;;;;;;;22.90;18.33;;;10.90;85.20;;;9.67;88.75;98778.03;5059601;28;20506;-67
2021/10/19 09:08:06;;;;;;;21.70;18.07;;;10.80;86.30;;;9.70;87.64;98774.97;5072130;28;20460;-67
2021/10/19 09:10:35;;;;;;;20.53;18.33;;;10.90;85.50;;;9.55;88.68;98778.53;5054622;28;20488;-67
2021/10/19 09:13:05;;;;;;;21.60;17.33;;;10.80;85.90;;;9.74;88.88;98770.84;5061671;28;21045;-67
2021/10/19 09:15:35;;;;;;;22.43;18.07;;;11.00;86.60;;;9.85;87.58;98788.38;5063834;28;20503;-67
2021/10/19 09:18:03;;;;;;;20.23;18.03;;;11.00;85.40;;;9.96;88.08;98789.75;5058547;28;20545;-66
2021/10/19 09:20:37;;;;;;;19.47;17.40;;;11.10;85.90;;;10.04;87.43;98790.47;5080462;28;20456;-72
2021/10/19 09:23:05;;;;;;;18.20;16.40;;;11.20;85.50;;;10.47;86.75;98792.31;5075867;28;20461;-71
2021/10/19 09:25:34;;;;;;;20.70;17.50;;;11.50;85.60;;;10.62;84.75;98794.09;5053389;28;20567;-72
2021/10/19 09:28:04;;;;;;;18.50;16.60;;;11.70;83.70;;;10.58;84.77;98790.94;5055913;28;20556;-71
2021/10/19 09:30:39;;;;;;;19.27;17.17;;;11.70;82.60;;;10.42;84.96;98788.53;5067823;28;20457;-64
2021/10/19 09:33:08;;;;;;;20.43;17.67;;;11.70;82.70;;;10.28;85.85;98774.88;5062012;28;20468;-67
2021/10/19 09:35:37;;;;;;;19.03;17.07;;;11.60;82.80;;;10.68;85.14;98776.25;5062301;28;20485;-65
2021/10/19 09:38:06;;;;;;;17.47;15.60;;;11.70;83.70;;;10.70;84.51;98764.22;5062814;28;20481;-68
2021/10/19 09:40:36;;;;;;;19.93;17.40;;;11.80;83.10;;;10.74;85.69;98767.34;5069227;28;20453;-68
2021/10/19 09:43:07;;;;;;;19.20;17.20;;;11.80;83.50;;;10.56;85.89;98762.47;5057327;28;21050;-68
2021/10/19 09:45:35;;;;;;;19.33;17.20;;;11.80;83.40;;;10.54;85.51;98754.53;5063153;28;20471;-68
2021/10/19 09:48:05;;;;;;;18.80;16.80;;;11.80;83.00;;;10.77;83.92;98758.84;5060157;28;20482;-68
2021/10/19 09:50:33;;;;;;;19.03;16.90;;;11.80;82.80;;;10.93;84.11;98756.88;5064190;28;20444;-67
2021/10/19 09:53:03;;;;;;;18.63;16.70;;;12.00;82.50;;;10.70;84.25;98739.03;5070031;28;20555;-67
2021/10/19 09:55:31;;;;;;;17.97;15.73;;;12.00;82.10;;;10.82;84.84;98772.59;5064794;28;20484;-67
2021/10/19 09:57:58;;;;;;;20.70;16.63;;;11.90;83.10;;;10.70;84.59;98771.47;5061231;28;20472;-67
2021/10/19 10:00:27;;;;;;;19.80;16.63;;;12.00;82.30;;;10.77;84.42;98767.78;5069368;28;20464;-67
2021/10/19 10:02:55;;;;;;;18.97;16.97;;;11.90;82.80;;;11.09;84.27;98777.31;5068987;28;20510;-68
2021/10/19 10:05:22;;;;;;;18.57;16.33;;;12.10;82.80;;;10.98;84.70;98771.44;5080333;28;20477;-67
2021/10/19 10:07:51;;;;;;;18.27;15.77;;;12.00;83.20;;;11.11;83.85;98759.88;5068895;28;20488;-66
2021/10/19 10:10:22;;;;;;;18.67;16.83;;;12.20;82.50;;;11.52;82.76;98768.97;5059352;28;20489;-67
2021/10/19 10:13:00;;;;;;;18.13;16.00;;;12.50;82.10;;;11.45;82.88;98778.94;5057639;28;20552;-67
2021/10/19 10:15:32;;;;;;;18.50;16.77;;;12.60;81.80;;;11.84;81.15;98765.72;5058979;28;20473;-68